PWSweather.com
Personal Weather Stations
Station Observations
WD4JKH
Forsyth, GA 31029

Forsyth, GA 31029

Lat: 33.033225, Lon: -83.927995

Elevation: 709

Station Type: Davis Vantage VUE

High Low Average
Temperature 47.5°F8.6°C 31.4°F-0.3°C 38.1°F3.4°C
Dew Point 29.0°F-1.7°C 23.3°F-4.8°C 26.3°F-3.2°C
Winds 8.7 mph 14.0 kmh Calm Calm 3.0 mph NW4.8 kmh NW
Wind Gusts 18.0 mph29.0 kmh 2.0 mph3.2 kmh 10.0 mph16.1 kmh
Humidity 79% 41% 64%
Pressure 30.41 in1029.8 mb 30.17 in1021.7 mb -
Precipitation 0.00 in0.0 mm - -
Hour Temp Dew Point Humidity Winds Wind Gusts Pressure Precip Precip Rate Daily Precip Total
12:03 AM 37.3°F2.9°C 28.8°F-1.8°C 71% 1.3 mph WNW2.1 kmh WNW 4.0 mph6.4 kmh 30.17 in1021.7 mb 0.00 in0.0 mm 0.00 in0.0 mm 0.00 in0.0 mm
12:08 AM 37.3°F2.9°C 28.8°F-1.8°C 71% 1.4 mph WNW2.3 kmh WNW 4.0 mph6.4 kmh 30.18 in1022.0 mb 0.00 in0.0 mm 0.00 in0.0 mm 0.00 in0.0 mm
12:13 AM 37.1°F2.8°C 29.0°F-1.7°C 72% 1.4 mph NW2.3 kmh NW 4.0 mph6.4 kmh 30.18 in1022.0 mb 0.00 in0.0 mm 0.00 in0.0 mm 0.00 in0.0 mm
12:18 AM 37.1°F2.8°C 28.9°F-1.7°C 72% 2.0 mph NW3.2 kmh NW 4.0 mph6.4 kmh 30.18 in1022.0 mb 0.00 in0.0 mm 0.00 in0.0 mm 0.00 in0.0 mm
12:23 AM 37.0°F2.8°C 28.8°F-1.8°C 72% 2.1 mph WNW3.4 kmh WNW 4.0 mph6.4 kmh 30.18 in1022.0 mb 0.00 in0.0 mm 0.00 in0.0 mm 0.00 in0.0 mm
12:28 AM 36.8°F2.7°C 28.7°F-1.8°C 72% 2.1 mph WNW3.4 kmh WNW 4.0 mph6.4 kmh 30.18 in1022.0 mb 0.00 in0.0 mm 0.00 in0.0 mm 0.00 in0.0 mm
12:33 AM 36.7°F2.6°C 28.9°F-1.7°C 73% 1.6 mph WNW2.6 kmh WNW 4.0 mph6.4 kmh 30.18 in1022.0 mb 0.00 in0.0 mm 0.00 in0.0 mm 0.00 in0.0 mm
12:38 AM 36.5°F2.5°C 28.7°F-1.8°C 73% 1.6 mph WNW2.6 kmh WNW 4.0 mph6.4 kmh 30.18 in1022.0 mb 0.00 in0.0 mm 0.00 in0.0 mm 0.00 in0.0 mm
12:43 AM 36.5°F2.5°C 28.7°F-1.8°C 73% 1.7 mph W2.7 kmh W 4.0 mph6.4 kmh 30.18 in1022.0 mb 0.00 in0.0 mm 0.00 in0.0 mm 0.00 in0.0 mm
12:47 AM 36.4°F2.4°C 28.6°F-1.9°C 73% 2.1 mph WNW3.4 kmh WNW 4.0 mph6.4 kmh 30.19 in1022.4 mb 0.00 in0.0 mm 0.00 in0.0 mm 0.00 in0.0 mm
12:52 AM 36.3°F2.4°C 28.9°F-1.7°C 74% 2.6 mph WNW4.2 kmh WNW 6.0 mph9.7 kmh 30.19 in1022.4 mb 0.00 in0.0 mm 0.00 in0.0 mm 0.00 in0.0 mm
12:57 AM 36.3°F2.4°C 28.8°F-1.8°C 74% 2.1 mph WNW3.4 kmh WNW 6.0 mph9.7 kmh 30.19 in1022.4 mb 0.00 in0.0 mm 0.00 in0.0 mm 0.00 in0.0 mm
01:02 AM 36.2°F2.3°C 28.7°F-1.8°C 74% 2.0 mph W3.2 kmh W 6.0 mph9.7 kmh 30.18 in1022.0 mb 0.00 in0.0 mm 0.00 in0.0 mm 0.00 in0.0 mm
01:07 AM 36.0°F2.2°C 28.6°F-1.9°C 74% 1.8 mph W2.9 kmh W 6.0 mph9.7 kmh 30.18 in1022.0 mb 0.00 in0.0 mm 0.00 in0.0 mm 0.00 in0.0 mm
01:12 AM 35.9°F2.2°C 28.8°F-1.8°C 75% 2.3 mph WNW3.7 kmh WNW 5.0 mph8.0 kmh 30.18 in1022.0 mb 0.00 in0.0 mm 0.00 in0.0 mm 0.00 in0.0 mm
01:17 AM 35.8°F2.1°C 28.7°F-1.8°C 75% 1.5 mph W2.4 kmh W 7.0 mph11.3 kmh 30.18 in1022.0 mb 0.00 in0.0 mm 0.00 in0.0 mm 0.00 in0.0 mm
01:22 AM 35.7°F2.1°C 28.6°F-1.9°C 75% 2.0 mph WNW3.2 kmh WNW 7.0 mph11.3 kmh 30.18 in1022.0 mb 0.00 in0.0 mm 0.00 in0.0 mm 0.00 in0.0 mm
01:27 AM 35.7°F2.1°C 28.3°F-2.1°C 74% 2.2 mph WNW3.5 kmh WNW 7.0 mph11.3 kmh 30.18 in1022.0 mb 0.00 in0.0 mm 0.00 in0.0 mm 0.00 in0.0 mm
01:32 AM 35.7°F2.1°C 28.3°F-2.1°C 74% 2.2 mph WNW3.5 kmh WNW 5.0 mph8.0 kmh 30.18 in1022.0 mb 0.00 in0.0 mm 0.00 in0.0 mm 0.00 in0.0 mm
01:37 AM 35.7°F2.1°C 28.0°F-2.2°C 73% 2.7 mph WNW4.3 kmh WNW 5.0 mph8.0 kmh 30.19 in1022.4 mb 0.00 in0.0 mm 0.00 in0.0 mm 0.00 in0.0 mm
01:42 AM 35.7°F2.1°C 27.9°F-2.3°C 73% 2.5 mph WNW4.0 kmh WNW 7.0 mph11.3 kmh 30.19 in1022.4 mb 0.00 in0.0 mm 0.00 in0.0 mm 0.00 in0.0 mm
01:47 AM 35.7°F2.1°C 28.0°F-2.2°C 73% 2.4 mph WNW3.9 kmh WNW 7.0 mph11.3 kmh 30.19 in1022.4 mb 0.00 in0.0 mm 0.00 in0.0 mm 0.00 in0.0 mm
01:52 AM 35.6°F2.0°C 27.9°F-2.3°C 73% 2.6 mph WNW4.2 kmh WNW 8.0 mph12.9 kmh 30.19 in1022.4 mb 0.00 in0.0 mm 0.00 in0.0 mm 0.00 in0.0 mm
01:57 AM 35.6°F2.0°C 27.9°F-2.3°C 73% 1.9 mph W3.1 kmh W 8.0 mph12.9 kmh 30.19 in1022.4 mb 0.00 in0.0 mm 0.00 in0.0 mm 0.00 in0.0 mm
02:02 AM 35.5°F1.9°C 27.8°F-2.3°C 73% 2.2 mph WNW3.5 kmh WNW 8.0 mph12.9 kmh 30.19 in1022.4 mb 0.00 in0.0 mm 0.00 in0.0 mm 0.00 in0.0 mm
02:07 AM 35.3°F1.8°C 27.9°F-2.3°C 74% 1.7 mph W2.7 kmh W 8.0 mph12.9 kmh 30.19 in1022.4 mb 0.00 in0.0 mm 0.00 in0.0 mm 0.00 in0.0 mm
02:12 AM 35.3°F1.8°C 27.6°F-2.4°C 73% 2.1 mph W3.4 kmh W 6.0 mph9.7 kmh 30.19 in1022.4 mb 0.00 in0.0 mm 0.00 in0.0 mm 0.00 in0.0 mm
02:17 AM 35.1°F1.7°C 27.6°F-2.4°C 74% 1.9 mph W3.1 kmh W 5.0 mph8.0 kmh 30.19 in1022.4 mb 0.00 in0.0 mm 0.00 in0.0 mm 0.00 in0.0 mm
02:22 AM 35.0°F1.7°C 27.6°F-2.4°C 74% 1.3 mph WNW2.1 kmh WNW 4.0 mph6.4 kmh 30.19 in1022.4 mb 0.00 in0.0 mm 0.00 in0.0 mm 0.00 in0.0 mm
02:27 AM 34.8°F1.6°C 27.4°F-2.6°C 74% 1.6 mph W2.6 kmh W 4.0 mph6.4 kmh 30.19 in1022.4 mb 0.00 in0.0 mm 0.00 in0.0 mm 0.00 in0.0 mm
02:32 AM 34.7°F1.5°C 27.6°F-2.4°C 75% 1.8 mph WNW2.9 kmh WNW 4.0 mph6.4 kmh 30.19 in1022.4 mb 0.00 in0.0 mm 0.00 in0.0 mm 0.00 in0.0 mm
02:37 AM 34.5°F1.4°C 27.4°F-2.6°C 75% 1.2 mph W1.9 kmh W 4.0 mph6.4 kmh 30.19 in1022.4 mb 0.00 in0.0 mm 0.00 in0.0 mm 0.00 in0.0 mm
02:42 AM 34.3°F1.3°C 27.2°F-2.7°C 75% 1.6 mph W2.6 kmh W 4.0 mph6.4 kmh 30.19 in1022.4 mb 0.00 in0.0 mm 0.00 in0.0 mm 0.00 in0.0 mm
02:47 AM 34.2°F1.2°C 27.5°F-2.5°C 76% 1.7 mph W2.7 kmh W 4.0 mph6.4 kmh 30.19 in1022.4 mb 0.00 in0.0 mm 0.00 in0.0 mm 0.00 in0.0 mm
02:52 AM 34.0°F1.1°C 27.3°F-2.6°C 76% 1.0 mph W1.6 kmh W 4.0 mph6.4 kmh 30.19 in1022.4 mb 0.00 in0.0 mm 0.00 in0.0 mm 0.00 in0.0 mm
02:57 AM 33.9°F1.1°C 27.2°F-2.7°C 76% 1.3 mph WNW2.1 kmh WNW 4.0 mph6.4 kmh 30.19 in1022.4 mb 0.00 in0.0 mm 0.00 in0.0 mm 0.00 in0.0 mm
03:02 AM 33.9°F1.1°C 27.2°F-2.7°C 76% 1.6 mph W2.6 kmh W 4.0 mph6.4 kmh 30.20 in1022.7 mb 0.00 in0.0 mm 0.00 in0.0 mm 0.00 in0.0 mm
03:07 AM 33.9°F1.1°C 27.2°F-2.7°C 76% 2.0 mph W3.2 kmh W 5.0 mph8.0 kmh 30.19 in1022.4 mb 0.00 in0.0 mm 0.00 in0.0 mm 0.00 in0.0 mm
03:12 AM 33.9°F1.1°C 27.2°F-2.7°C 76% 2.2 mph W3.5 kmh W 5.0 mph8.0 kmh 30.19 in1022.4 mb 0.00 in0.0 mm 0.00 in0.0 mm 0.00 in0.0 mm
03:17 AM 33.9°F1.1°C 27.2°F-2.7°C 76% 1.6 mph W2.6 kmh W 5.0 mph8.0 kmh 30.20 in1022.7 mb 0.00 in0.0 mm 0.00 in0.0 mm 0.00 in0.0 mm
03:22 AM 33.7°F0.9°C 27.3°F-2.6°C 77% 2.3 mph W3.7 kmh W 6.0 mph9.7 kmh 30.20 in1022.7 mb 0.00 in0.0 mm 0.00 in0.0 mm 0.00 in0.0 mm
03:27 AM 33.6°F0.9°C 27.2°F-2.7°C 77% 1.6 mph W2.6 kmh W 6.0 mph9.7 kmh 30.20 in1022.7 mb 0.00 in0.0 mm 0.00 in0.0 mm 0.00 in0.0 mm
03:32 AM 33.5°F0.8°C 27.1°F-2.7°C 77% 2.3 mph W3.7 kmh W 6.0 mph9.7 kmh 30.20 in1022.7 mb 0.00 in0.0 mm 0.00 in0.0 mm 0.00 in0.0 mm
03:37 AM 33.4°F0.8°C 27.3°F-2.6°C 78% 1.7 mph WNW2.7 kmh WNW 6.0 mph9.7 kmh 30.20 in1022.7 mb 0.00 in0.0 mm 0.00 in0.0 mm 0.00 in0.0 mm
03:42 AM 33.4°F0.8°C 27.3°F-2.6°C 78% 2.5 mph WNW4.0 kmh WNW 6.0 mph9.7 kmh 30.20 in1022.7 mb 0.00 in0.0 mm 0.00 in0.0 mm 0.00 in0.0 mm
03:47 AM 33.2°F0.7°C 27.1°F-2.7°C 78% 1.8 mph W2.9 kmh W 6.0 mph9.7 kmh 30.20 in1022.7 mb 0.00 in0.0 mm 0.00 in0.0 mm 0.00 in0.0 mm
03:52 AM 33.2°F0.7°C 27.1°F-2.7°C 78% 1.9 mph W3.1 kmh W 6.0 mph9.7 kmh 30.20 in1022.7 mb 0.00 in0.0 mm 0.00 in0.0 mm 0.00 in0.0 mm
03:57 AM 33.1°F0.6°C 27.0°F-2.8°C 78% 1.6 mph W2.6 kmh W 6.0 mph9.7 kmh 30.20 in1022.7 mb 0.00 in0.0 mm 0.00 in0.0 mm 0.00 in0.0 mm
04:02 AM 33.0°F0.6°C 26.9°F-2.8°C 78% 1.6 mph WNW2.6 kmh WNW 5.0 mph8.0 kmh 30.20 in1022.7 mb 0.00 in0.0 mm 0.00 in0.0 mm 0.00 in0.0 mm
04:07 AM 33.0°F0.6°C 27.2°F-2.7°C 79% 1.9 mph W3.1 kmh W 5.0 mph8.0 kmh 30.20 in1022.7 mb 0.00 in0.0 mm 0.00 in0.0 mm 0.00 in0.0 mm
04:12 AM 33.0°F0.6°C 27.2°F-2.7°C 79% 2.2 mph WNW3.5 kmh WNW 5.0 mph8.0 kmh 30.20 in1022.7 mb 0.00 in0.0 mm 0.00 in0.0 mm 0.00 in0.0 mm
04:17 AM 33.1°F0.6°C 27.0°F-2.8°C 78% 2.3 mph WNW3.7 kmh WNW 9.0 mph14.5 kmh 30.20 in1022.7 mb 0.00 in0.0 mm 0.00 in0.0 mm 0.00 in0.0 mm
04:22 AM 33.2°F0.7°C 27.1°F-2.7°C 78% 3.0 mph WNW4.8 kmh WNW 9.0 mph14.5 kmh 30.20 in1022.7 mb 0.00 in0.0 mm 0.00 in0.0 mm 0.00 in0.0 mm
04:27 AM 33.2°F0.7°C 27.1°F-2.7°C 78% 3.6 mph WNW5.8 kmh WNW 9.0 mph14.5 kmh 30.20 in1022.7 mb 0.00 in0.0 mm 0.00 in0.0 mm 0.00 in0.0 mm
04:32 AM 33.3°F0.7°C 26.9°F-2.8°C 77% 2.6 mph WNW4.2 kmh WNW 9.0 mph14.5 kmh 30.20 in1022.7 mb 0.00 in0.0 mm 0.00 in0.0 mm 0.00 in0.0 mm
04:37 AM 33.3°F0.7°C 26.9°F-2.8°C 77% 3.6 mph WNW5.8 kmh WNW 9.0 mph14.5 kmh 30.20 in1022.7 mb 0.00 in0.0 mm 0.00 in0.0 mm 0.00 in0.0 mm
04:42 AM 33.3°F0.7°C 26.9°F-2.8°C 77% 2.8 mph NW4.5 kmh NW 9.0 mph14.5 kmh 30.20 in1022.7 mb 0.00 in0.0 mm 0.00 in0.0 mm 0.00 in0.0 mm
04:47 AM 33.4°F0.8°C 27.0°F-2.8°C 77% 2.7 mph WNW4.3 kmh WNW 9.0 mph14.5 kmh 30.20 in1022.7 mb 0.00 in0.0 mm 0.00 in0.0 mm 0.00 in0.0 mm
04:52 AM 33.4°F0.8°C 27.0°F-2.8°C 77% 3.1 mph WNW5.0 kmh WNW 9.0 mph14.5 kmh 30.21 in1023.0 mb 0.00 in0.0 mm 0.00 in0.0 mm 0.00 in0.0 mm
04:57 AM 33.5°F0.8°C 27.1°F-2.7°C 77% 3.4 mph WNW5.5 kmh WNW 9.0 mph14.5 kmh 30.21 in1023.0 mb 0.00 in0.0 mm 0.00 in0.0 mm 0.00 in0.0 mm
05:02 AM 33.5°F0.8°C 27.1°F-2.7°C 77% 3.1 mph W5.0 kmh W 9.0 mph14.5 kmh 30.21 in1023.0 mb 0.00 in0.0 mm 0.00 in0.0 mm 0.00 in0.0 mm
05:07 AM 33.5°F0.8°C 26.8°F-2.9°C 76% 3.9 mph WNW6.3 kmh WNW 10.0 mph16.1 kmh 30.21 in1023.0 mb 0.00 in0.0 mm 0.00 in0.0 mm 0.00 in0.0 mm
05:12 AM 33.5°F0.8°C 26.8°F-2.9°C 76% 3.6 mph WNW5.8 kmh WNW 10.0 mph16.1 kmh 30.21 in1023.0 mb 0.00 in0.0 mm 0.00 in0.0 mm 0.00 in0.0 mm
05:17 AM 33.4°F0.8°C 26.7°F-2.9°C 76% 5.3 mph WNW8.5 kmh WNW 10.0 mph16.1 kmh 30.22 in1023.4 mb 0.00 in0.0 mm 0.00 in0.0 mm 0.00 in0.0 mm
05:22 AM 33.4°F0.8°C 26.7°F-2.9°C 76% 2.9 mph WNW4.7 kmh WNW 11.0 mph17.7 kmh 30.22 in1023.4 mb 0.00 in0.0 mm 0.00 in0.0 mm 0.00 in0.0 mm
05:27 AM 33.6°F0.9°C 26.9°F-2.8°C 76% 3.8 mph W6.1 kmh W 11.0 mph17.7 kmh 30.22 in1023.4 mb 0.00 in0.0 mm 0.00 in0.0 mm 0.00 in0.0 mm
05:32 AM 33.5°F0.8°C 26.8°F-2.9°C 76% 2.1 mph WNW3.4 kmh WNW 11.0 mph17.7 kmh 30.23 in1023.7 mb 0.00 in0.0 mm 0.00 in0.0 mm 0.00 in0.0 mm
05:37 AM 33.4°F0.8°C 26.7°F-2.9°C 76% 2.6 mph WNW4.2 kmh WNW 11.0 mph17.7 kmh 30.23 in1023.7 mb 0.00 in0.0 mm 0.00 in0.0 mm 0.00 in0.0 mm
05:42 AM 33.4°F0.8°C 26.7°F-2.9°C 76% 4.0 mph WNW6.4 kmh WNW 10.0 mph16.1 kmh 30.23 in1023.7 mb 0.00 in0.0 mm 0.00 in0.0 mm 0.00 in0.0 mm
05:48 AM 33.3°F0.7°C 26.6°F-3.0°C 76% 3.9 mph WNW6.3 kmh WNW 9.0 mph14.5 kmh 30.23 in1023.7 mb 0.00 in0.0 mm 0.00 in0.0 mm 0.00 in0.0 mm
05:53 AM 33.5°F0.8°C 26.8°F-2.9°C 76% 3.5 mph WNW5.6 kmh WNW 10.0 mph16.1 kmh 30.23 in1023.7 mb 0.00 in0.0 mm 0.00 in0.0 mm 0.00 in0.0 mm
05:58 AM 33.5°F0.8°C 26.8°F-2.9°C 76% 4.2 mph W6.8 kmh W 10.0 mph16.1 kmh 30.23 in1023.7 mb 0.00 in0.0 mm 0.00 in0.0 mm 0.00 in0.0 mm
06:03 AM 33.5°F0.8°C 26.8°F-2.9°C 76% 3.6 mph WNW5.8 kmh WNW 10.0 mph16.1 kmh 30.24 in1024.0 mb 0.00 in0.0 mm 0.00 in0.0 mm 0.00 in0.0 mm
06:08 AM 33.5°F0.8°C 26.8°F-2.9°C 76% 5.0 mph WNW8.0 kmh WNW 10.0 mph16.1 kmh 30.24 in1024.0 mb 0.00 in0.0 mm 0.00 in0.0 mm 0.00 in0.0 mm
06:13 AM 33.5°F0.8°C 26.8°F-2.9°C 76% 3.7 mph WNW6.0 kmh WNW 10.0 mph16.1 kmh 30.24 in1024.0 mb 0.00 in0.0 mm 0.00 in0.0 mm 0.00 in0.0 mm
06:18 AM 33.5°F0.8°C 26.8°F-2.9°C 76% 5.7 mph WNW9.2 kmh WNW 10.0 mph16.1 kmh 30.24 in1024.0 mb 0.00 in0.0 mm 0.00 in0.0 mm 0.00 in0.0 mm
06:22 AM 33.4°F0.8°C 26.7°F-2.9°C 76% 4.8 mph WNW7.7 kmh WNW 11.0 mph17.7 kmh 30.24 in1024.0 mb 0.00 in0.0 mm 0.00 in0.0 mm 0.00 in0.0 mm
06:28 AM 33.4°F0.8°C 26.7°F-2.9°C 76% 3.9 mph WNW6.3 kmh WNW 12.0 mph19.3 kmh 30.24 in1024.0 mb 0.00 in0.0 mm 0.00 in0.0 mm 0.00 in0.0 mm
06:33 AM 33.3°F0.7°C 26.9°F-2.8°C 77% 4.6 mph WNW7.4 kmh WNW 12.0 mph19.3 kmh 30.24 in1024.0 mb 0.00 in0.0 mm 0.00 in0.0 mm 0.00 in0.0 mm
06:38 AM 33.3°F0.7°C 26.9°F-2.8°C 77% 4.5 mph WNW7.2 kmh WNW 12.0 mph19.3 kmh 30.25 in1024.4 mb 0.00 in0.0 mm 0.00 in0.0 mm 0.00 in0.0 mm
06:43 AM 33.2°F0.7°C 26.8°F-2.9°C 77% 3.9 mph WNW6.3 kmh WNW 12.0 mph19.3 kmh 30.25 in1024.4 mb 0.00 in0.0 mm 0.00 in0.0 mm 0.00 in0.0 mm
06:46 AM 33.2°F0.7°C 26.8°F-2.9°C 77% 3.4 mph WNW5.5 kmh WNW 12.0 mph19.3 kmh 30.25 in1024.4 mb 0.00 in0.0 mm 0.00 in0.0 mm 0.00 in0.0 mm
06:51 AM 33.1°F0.6°C 26.7°F-2.9°C 77% 4.4 mph WNW7.1 kmh WNW 12.0 mph19.3 kmh 30.25 in1024.4 mb 0.00 in0.0 mm 0.00 in0.0 mm 0.00 in0.0 mm
06:56 AM 33.1°F0.6°C 27.0°F-2.8°C 78% 4.2 mph WNW6.8 kmh WNW 10.0 mph16.1 kmh 30.25 in1024.4 mb 0.00 in0.0 mm 0.00 in0.0 mm 0.00 in0.0 mm
07:01 AM 32.9°F0.5°C 26.8°F-2.9°C 78% 2.9 mph WNW4.7 kmh WNW 10.0 mph16.1 kmh 30.25 in1024.4 mb 0.00 in0.0 mm 0.00 in0.0 mm 0.00 in0.0 mm
07:06 AM 32.9°F0.5°C 26.8°F-2.9°C 78% 3.9 mph WNW6.3 kmh WNW 10.0 mph16.1 kmh 30.25 in1024.4 mb 0.00 in0.0 mm 0.00 in0.0 mm 0.00 in0.0 mm
07:11 AM 32.8°F0.4°C 26.7°F-2.9°C 78% 6.0 mph WNW9.7 kmh WNW 15.0 mph24.1 kmh 30.25 in1024.4 mb 0.00 in0.0 mm 0.00 in0.0 mm 0.00 in0.0 mm
07:16 AM 32.7°F0.4°C 26.9°F-2.8°C 79% 2.4 mph WNW3.9 kmh WNW 15.0 mph24.1 kmh 30.25 in1024.4 mb 0.00 in0.0 mm 0.00 in0.0 mm 0.00 in0.0 mm
07:21 AM 32.6°F0.3°C 26.8°F-2.9°C 79% 3.4 mph WNW5.5 kmh WNW 15.0 mph24.1 kmh 30.25 in1024.4 mb 0.00 in0.0 mm 0.00 in0.0 mm 0.00 in0.0 mm
07:26 AM 32.5°F0.3°C 26.7°F-2.9°C 79% 3.1 mph WNW5.0 kmh WNW 15.0 mph24.1 kmh 30.25 in1024.4 mb 0.00 in0.0 mm 0.00 in0.0 mm 0.00 in0.0 mm
07:31 AM 32.5°F0.3°C 26.7°F-2.9°C 79% 3.9 mph WNW6.3 kmh WNW 10.0 mph16.1 kmh 30.25 in1024.4 mb 0.00 in0.0 mm 0.00 in0.0 mm 0.00 in0.0 mm
07:36 AM 32.5°F0.3°C 26.7°F-2.9°C 79% 2.8 mph WNW4.5 kmh WNW 10.0 mph16.1 kmh 30.25 in1024.4 mb 0.00 in0.0 mm 0.00 in0.0 mm 0.00 in0.0 mm
07:41 AM 32.6°F0.3°C 26.8°F-2.9°C 79% 3.1 mph NW5.0 kmh NW 11.0 mph17.7 kmh 30.26 in1024.7 mb 0.00 in0.0 mm 0.00 in0.0 mm 0.00 in0.0 mm
07:46 AM 32.8°F0.4°C 27.0°F-2.8°C 79% 5.8 mph WNW9.3 kmh WNW 11.0 mph17.7 kmh 30.26 in1024.7 mb 0.00 in0.0 mm 0.00 in0.0 mm 0.00 in0.0 mm
07:51 AM 32.9°F0.5°C 26.8°F-2.9°C 78% 4.8 mph WNW7.7 kmh WNW 11.0 mph17.7 kmh 30.26 in1024.7 mb 0.00 in0.0 mm 0.00 in0.0 mm 0.00 in0.0 mm
07:57 AM 32.9°F0.5°C 26.8°F-2.9°C 78% 6.3 mph WNW10.1 kmh WNW 12.0 mph19.3 kmh 30.26 in1024.7 mb 0.00 in0.0 mm 0.00 in0.0 mm 0.00 in0.0 mm
08:02 AM 33.0°F0.6°C 26.9°F-2.8°C 78% 2.9 mph WNW4.7 kmh WNW 12.0 mph19.3 kmh 30.26 in1024.7 mb 0.00 in0.0 mm 0.00 in0.0 mm 0.00 in0.0 mm
08:07 AM 33.1°F0.6°C 27.0°F-2.8°C 78% 5.0 mph WNW8.0 kmh WNW 12.0 mph19.3 kmh 30.26 in1024.7 mb 0.00 in0.0 mm 0.00 in0.0 mm 0.00 in0.0 mm
08:12 AM 33.2°F0.7°C 27.1°F-2.7°C 78% 3.8 mph WNW6.1 kmh WNW 12.0 mph19.3 kmh 30.26 in1024.7 mb 0.00 in0.0 mm 0.00 in0.0 mm 0.00 in0.0 mm
08:17 AM 33.4°F0.8°C 27.0°F-2.8°C 77% 6.7 mph WNW10.8 kmh WNW 12.0 mph19.3 kmh 30.27 in1025.1 mb 0.00 in0.0 mm 0.00 in0.0 mm 0.00 in0.0 mm
08:22 AM 33.5°F0.8°C 27.1°F-2.7°C 77% 3.5 mph WNW5.6 kmh WNW 12.0 mph19.3 kmh 30.27 in1025.1 mb 0.00 in0.0 mm 0.00 in0.0 mm 0.00 in0.0 mm
08:27 AM 33.8°F1.0°C 27.1°F-2.7°C 76% 4.6 mph NW7.4 kmh NW 13.0 mph20.9 kmh 30.27 in1025.1 mb 0.00 in0.0 mm 0.00 in0.0 mm 0.00 in0.0 mm
08:32 AM 34.0°F1.1°C 27.3°F-2.6°C 76% 5.0 mph WNW8.0 kmh WNW 13.0 mph20.9 kmh 30.27 in1025.1 mb 0.00 in0.0 mm 0.00 in0.0 mm 0.00 in0.0 mm
08:37 AM 34.1°F1.2°C 27.0°F-2.8°C 75% 3.6 mph WNW5.8 kmh WNW 13.0 mph20.9 kmh 30.27 in1025.1 mb 0.00 in0.0 mm 0.00 in0.0 mm 0.00 in0.0 mm
08:42 AM 34.3°F1.3°C 27.2°F-2.7°C 75% 5.3 mph WNW8.5 kmh WNW 13.0 mph20.9 kmh 30.27 in1025.1 mb 0.00 in0.0 mm 0.00 in0.0 mm 0.00 in0.0 mm
08:47 AM 34.5°F1.4°C 27.1°F-2.7°C 74% 3.8 mph WNW6.1 kmh WNW 11.0 mph17.7 kmh 30.27 in1025.1 mb 0.00 in0.0 mm 0.00 in0.0 mm 0.00 in0.0 mm
08:52 AM 34.7°F1.5°C 26.9°F-2.8°C 73% 5.4 mph NW8.7 kmh NW 13.0 mph20.9 kmh 30.27 in1025.1 mb 0.00 in0.0 mm 0.00 in0.0 mm 0.00 in0.0 mm
08:57 AM 34.9°F1.6°C 26.8°F-2.9°C 72% 5.1 mph NW8.2 kmh NW 13.0 mph20.9 kmh 30.27 in1025.1 mb 0.00 in0.0 mm 0.00 in0.0 mm 0.00 in0.0 mm
09:02 AM 35.2°F1.8°C 27.1°F-2.7°C 72% 4.7 mph WNW7.6 kmh WNW 13.0 mph20.9 kmh 30.28 in1025.4 mb 0.00 in0.0 mm 0.00 in0.0 mm 0.00 in0.0 mm
09:07 AM 35.5°F1.9°C 27.1°F-2.7°C 71% 3.4 mph WNW5.5 kmh WNW 13.0 mph20.9 kmh 30.28 in1025.4 mb 0.00 in0.0 mm 0.00 in0.0 mm 0.00 in0.0 mm
09:12 AM 35.6°F2.0°C 27.1°F-2.7°C 71% 3.9 mph NW6.3 kmh NW 13.0 mph20.9 kmh 30.28 in1025.4 mb 0.00 in0.0 mm 0.00 in0.0 mm 0.00 in0.0 mm
09:17 AM 35.9°F2.2°C 27.4°F-2.6°C 71% 3.1 mph NW5.0 kmh NW 13.0 mph20.9 kmh 30.28 in1025.4 mb 0.00 in0.0 mm 0.00 in0.0 mm 0.00 in0.0 mm
09:22 AM 36.1°F2.3°C 27.3°F-2.6°C 70% 4.6 mph WNW7.4 kmh WNW 13.0 mph20.9 kmh 30.28 in1025.4 mb 0.00 in0.0 mm 0.00 in0.0 mm 0.00 in0.0 mm
09:27 AM 36.4°F2.4°C 27.6°F-2.4°C 70% 5.0 mph NW8.0 kmh NW 12.0 mph19.3 kmh 30.29 in1025.7 mb 0.00 in0.0 mm 0.00 in0.0 mm 0.00 in0.0 mm
09:32 AM 36.4°F2.4°C 26.9°F-2.8°C 68% 6.1 mph NW9.8 kmh NW 15.0 mph24.1 kmh 30.29 in1025.7 mb 0.00 in0.0 mm 0.00 in0.0 mm 0.00 in0.0 mm
09:37 AM 36.5°F2.5°C 27.4°F-2.6°C 69% 3.3 mph NW5.3 kmh NW 15.0 mph24.1 kmh 30.29 in1025.7 mb 0.00 in0.0 mm 0.00 in0.0 mm 0.00 in0.0 mm
09:42 AM 36.7°F2.6°C 27.2°F-2.7°C 68% 6.6 mph WNW10.6 kmh WNW 15.0 mph24.1 kmh 30.29 in1025.7 mb 0.00 in0.0 mm 0.00 in0.0 mm 0.00 in0.0 mm
09:47 AM 37.2°F2.9°C 27.6°F-2.4°C 68% 3.3 mph WNW5.3 kmh WNW 15.0 mph24.1 kmh 30.29 in1025.7 mb 0.00 in0.0 mm 0.00 in0.0 mm 0.00 in0.0 mm
09:52 AM 37.5°F3.1°C 27.6°F-2.4°C 67% 3.9 mph WNW6.3 kmh WNW 15.0 mph24.1 kmh 30.29 in1025.7 mb 0.00 in0.0 mm 0.00 in0.0 mm 0.00 in0.0 mm
09:57 AM 37.7°F3.2°C 27.8°F-2.3°C 67% 3.7 mph WNW6.0 kmh WNW 14.0 mph22.5 kmh 30.29 in1025.7 mb 0.00 in0.0 mm 0.00 in0.0 mm 0.00 in0.0 mm
10:02 AM 37.8°F3.2°C 27.9°F-2.3°C 67% 4.4 mph NW7.1 kmh NW 14.0 mph22.5 kmh 30.29 in1025.7 mb 0.00 in0.0 mm 0.00 in0.0 mm 0.00 in0.0 mm
10:07 AM 37.9°F3.3°C 27.6°F-2.4°C 66% 5.0 mph WNW8.0 kmh WNW 14.0 mph22.5 kmh 30.29 in1025.7 mb 0.00 in0.0 mm 0.00 in0.0 mm 0.00 in0.0 mm
10:12 AM 38.2°F3.4°C 27.5°F-2.5°C 65% 3.0 mph WNW4.8 kmh WNW 11.0 mph17.7 kmh 30.29 in1025.7 mb 0.00 in0.0 mm 0.00 in0.0 mm 0.00 in0.0 mm
10:17 AM 38.3°F3.5°C 27.6°F-2.4°C 65% 3.9 mph WNW6.3 kmh WNW 11.0 mph17.7 kmh 30.29 in1025.7 mb 0.00 in0.0 mm 0.00 in0.0 mm 0.00 in0.0 mm
10:22 AM 38.7°F3.7°C 27.6°F-2.4°C 64% 3.1 mph NW5.0 kmh NW 11.0 mph17.7 kmh 30.29 in1025.7 mb 0.00 in0.0 mm 0.00 in0.0 mm 0.00 in0.0 mm
10:27 AM 39.0°F3.9°C 27.1°F-2.7°C 62% 4.5 mph WNW7.2 kmh WNW 13.0 mph20.9 kmh 30.29 in1025.7 mb 0.00 in0.0 mm 0.00 in0.0 mm 0.00 in0.0 mm
10:32 AM 39.2°F4.0°C 27.3°F-2.6°C 62% 2.9 mph NNW4.7 kmh NNW 14.0 mph22.5 kmh 30.29 in1025.7 mb 0.00 in0.0 mm 0.00 in0.0 mm 0.00 in0.0 mm
10:37 AM 39.3°F4.1°C 26.6°F-3.0°C 60% 5.2 mph WNW8.4 kmh WNW 14.0 mph22.5 kmh 30.30 in1026.1 mb 0.00 in0.0 mm 0.00 in0.0 mm 0.00 in0.0 mm
10:42 AM 39.5°F4.2°C 26.3°F-3.2°C 59% 4.9 mph W7.9 kmh W 14.0 mph22.5 kmh 30.29 in1025.7 mb 0.00 in0.0 mm 0.00 in0.0 mm 0.00 in0.0 mm
10:47 AM 39.9°F4.4°C 26.8°F-2.9°C 59% 4.4 mph WNW7.1 kmh WNW 14.0 mph22.5 kmh 30.29 in1025.7 mb 0.00 in0.0 mm 0.00 in0.0 mm 0.00 in0.0 mm
10:52 AM 39.8°F4.3°C 26.3°F-3.2°C 58% 6.4 mph WNW10.3 kmh WNW 14.0 mph22.5 kmh 30.29 in1025.7 mb 0.00 in0.0 mm 0.00 in0.0 mm 0.00 in0.0 mm
10:57 AM 40.3°F4.6°C 27.2°F-2.7°C 59% 1.6 mph NW2.6 kmh NW 13.0 mph20.9 kmh 30.29 in1025.7 mb 0.00 in0.0 mm 0.00 in0.0 mm 0.00 in0.0 mm
11:02 AM 40.5°F4.7°C 26.1°F-3.3°C 56% 5.9 mph NW9.5 kmh NW 13.0 mph20.9 kmh 30.29 in1025.7 mb 0.00 in0.0 mm 0.00 in0.0 mm 0.00 in0.0 mm
11:07 AM 41.1°F5.1°C 26.6°F-3.0°C 56% 3.2 mph NNW5.1 kmh NNW 13.0 mph20.9 kmh 30.29 in1025.7 mb 0.00 in0.0 mm 0.00 in0.0 mm 0.00 in0.0 mm
11:12 AM 41.2°F5.1°C 26.7°F-2.9°C 56% 5.3 mph NW8.5 kmh NW 12.0 mph19.3 kmh 30.29 in1025.7 mb 0.00 in0.0 mm 0.00 in0.0 mm 0.00 in0.0 mm
11:17 AM 41.4°F5.2°C 26.5°F-3.1°C 55% 5.5 mph NW8.9 kmh NW 12.0 mph19.3 kmh 30.29 in1025.7 mb 0.00 in0.0 mm 0.00 in0.0 mm 0.00 in0.0 mm
11:22 AM 41.4°F5.2°C 26.0°F-3.3°C 54% 5.6 mph W9.0 kmh W 12.0 mph19.3 kmh 30.29 in1025.7 mb 0.00 in0.0 mm 0.00 in0.0 mm 0.00 in0.0 mm
11:27 AM 41.3°F5.2°C 25.9°F-3.4°C 54% 3.3 mph WNW5.3 kmh WNW 12.0 mph19.3 kmh 30.29 in1025.7 mb 0.00 in0.0 mm 0.00 in0.0 mm 0.00 in0.0 mm
11:32 AM 41.7°F5.4°C 26.7°F-2.9°C 55% 3.9 mph NW6.3 kmh NW 11.0 mph17.7 kmh 30.29 in1025.7 mb 0.00 in0.0 mm 0.00 in0.0 mm 0.00 in0.0 mm
11:37 AM 42.0°F5.6°C 26.1°F-3.3°C 53% 4.8 mph WNW7.7 kmh WNW 12.0 mph19.3 kmh 30.29 in1025.7 mb 0.00 in0.0 mm 0.00 in0.0 mm 0.00 in0.0 mm
11:42 AM 42.4°F5.8°C 26.5°F-3.1°C 53% 3.1 mph W5.0 kmh W 12.0 mph19.3 kmh 30.28 in1025.4 mb 0.00 in0.0 mm 0.00 in0.0 mm 0.00 in0.0 mm
11:47 AM 42.6°F5.9°C 26.2°F-3.2°C 52% 4.8 mph NW7.7 kmh NW 12.0 mph19.3 kmh 30.28 in1025.4 mb 0.00 in0.0 mm 0.00 in0.0 mm 0.00 in0.0 mm
11:52 AM 42.9°F6.1°C 26.9°F-2.8°C 53% 2.6 mph NW4.2 kmh NW 12.0 mph19.3 kmh 30.28 in1025.4 mb 0.00 in0.0 mm 0.00 in0.0 mm 0.00 in0.0 mm
11:57 AM 43.2°F6.2°C 26.7°F-2.9°C 52% 3.6 mph WNW5.8 kmh WNW 9.0 mph14.5 kmh 30.28 in1025.4 mb 0.00 in0.0 mm 0.00 in0.0 mm 0.00 in0.0 mm
12:02 PM 43.2°F6.2°C 26.3°F-3.2°C 51% 4.4 mph NW7.1 kmh NW 14.0 mph22.5 kmh 30.27 in1025.1 mb 0.00 in0.0 mm 0.00 in0.0 mm 0.00 in0.0 mm
12:07 PM 43.3°F6.3°C 25.9°F-3.4°C 50% 4.1 mph NW6.6 kmh NW 14.0 mph22.5 kmh 30.27 in1025.1 mb 0.00 in0.0 mm 0.00 in0.0 mm 0.00 in0.0 mm
12:12 PM 43.4°F6.3°C 25.9°F-3.4°C 50% 4.6 mph NW7.4 kmh NW 14.0 mph22.5 kmh 30.27 in1025.1 mb 0.00 in0.0 mm 0.00 in0.0 mm 0.00 in0.0 mm
12:17 PM 43.5°F6.4°C 25.5°F-3.6°C 49% 4.9 mph WNW7.9 kmh WNW 15.0 mph24.1 kmh 30.27 in1025.1 mb 0.00 in0.0 mm 0.00 in0.0 mm 0.00 in0.0 mm
12:22 PM 43.5°F6.4°C 25.5°F-3.6°C 49% 5.0 mph WNW8.0 kmh WNW 15.0 mph24.1 kmh 30.26 in1024.7 mb 0.00 in0.0 mm 0.00 in0.0 mm 0.00 in0.0 mm
12:27 PM 44.0°F6.7°C 26.5°F-3.1°C 50% 3.0 mph W4.8 kmh W 15.0 mph24.1 kmh 30.26 in1024.7 mb 0.00 in0.0 mm 0.00 in0.0 mm 0.00 in0.0 mm
12:32 PM 44.1°F6.7°C 26.1°F-3.3°C 49% 4.5 mph WNW7.2 kmh WNW 12.0 mph19.3 kmh 30.26 in1024.7 mb 0.00 in0.0 mm 0.00 in0.0 mm 0.00 in0.0 mm
12:37 PM 44.4°F6.9°C 26.9°F-2.8°C 50% 2.4 mph NW3.9 kmh NW 12.0 mph19.3 kmh 30.26 in1024.7 mb 0.00 in0.0 mm 0.00 in0.0 mm 0.00 in0.0 mm
12:42 PM 44.5°F6.9°C 25.9°F-3.4°C 48% 6.2 mph WNW10.0 kmh WNW 13.0 mph20.9 kmh 30.25 in1024.4 mb 0.00 in0.0 mm 0.00 in0.0 mm 0.00 in0.0 mm
12:46 PM 44.3°F6.8°C 26.3°F-3.2°C 49% 5.1 mph W8.2 kmh W 13.0 mph20.9 kmh 30.25 in1024.4 mb 0.00 in0.0 mm 0.00 in0.0 mm 0.00 in0.0 mm
12:51 PM 44.5°F6.9°C 26.5°F-3.1°C 49% 3.5 mph NW5.6 kmh NW 13.0 mph20.9 kmh 30.25 in1024.4 mb 0.00 in0.0 mm 0.00 in0.0 mm 0.00 in0.0 mm
12:56 PM 45.2°F7.3°C 26.1°F-3.3°C 47% 5.3 mph NW8.5 kmh NW 13.0 mph20.9 kmh 30.25 in1024.4 mb 0.00 in0.0 mm 0.00 in0.0 mm 0.00 in0.0 mm
01:01 PM 45.2°F7.3°C 26.7°F-2.9°C 48% 1.9 mph NW3.1 kmh NW 13.0 mph20.9 kmh 30.25 in1024.4 mb 0.00 in0.0 mm 0.00 in0.0 mm 0.00 in0.0 mm
01:06 PM 45.7°F7.6°C 26.5°F-3.1°C 47% 4.1 mph WNW6.6 kmh WNW 13.0 mph20.9 kmh 30.25 in1024.4 mb 0.00 in0.0 mm 0.00 in0.0 mm 0.00 in0.0 mm
01:11 PM 46.1°F7.8°C 26.9°F-2.8°C 47% 5.0 mph W8.0 kmh W 12.0 mph19.3 kmh 30.25 in1024.4 mb 0.00 in0.0 mm 0.00 in0.0 mm 0.00 in0.0 mm
01:16 PM 46.0°F7.8°C 26.3°F-3.2°C 46% 5.2 mph W8.4 kmh W 12.0 mph19.3 kmh 30.25 in1024.4 mb 0.00 in0.0 mm 0.00 in0.0 mm 0.00 in0.0 mm
01:21 PM 46.3°F7.9°C 26.0°F-3.3°C 45% 7.3 mph W11.7 kmh W 18.0 mph29.0 kmh 30.25 in1024.4 mb 0.00 in0.0 mm 0.00 in0.0 mm 0.00 in0.0 mm
01:26 PM 46.0°F7.8°C 26.3°F-3.2°C 46% 7.2 mph W11.6 kmh W 18.0 mph29.0 kmh 30.25 in1024.4 mb 0.00 in0.0 mm 0.00 in0.0 mm 0.00 in0.0 mm
01:31 PM 46.3°F7.9°C 25.6°F-3.6°C 44% 5.8 mph WNW9.3 kmh WNW 18.0 mph29.0 kmh 30.25 in1024.4 mb 0.00 in0.0 mm 0.00 in0.0 mm 0.00 in0.0 mm
01:36 PM 46.4°F8.0°C 26.1°F-3.3°C 45% 6.2 mph WNW10.0 kmh WNW 18.0 mph29.0 kmh 30.24 in1024.0 mb 0.00 in0.0 mm 0.00 in0.0 mm 0.00 in0.0 mm
01:41 PM 46.8°F8.2°C 25.3°F-3.7°C 43% 6.9 mph W11.1 kmh W 17.0 mph27.4 kmh 30.24 in1024.0 mb 0.00 in0.0 mm 0.00 in0.0 mm 0.00 in0.0 mm
01:46 PM 46.7°F8.2°C 25.2°F-3.8°C 43% 5.5 mph WNW8.9 kmh WNW 17.0 mph27.4 kmh 30.24 in1024.0 mb 0.00 in0.0 mm 0.00 in0.0 mm 0.00 in0.0 mm
01:51 PM 46.8°F8.2°C 26.0°F-3.3°C 44% 6.0 mph WNW9.7 kmh WNW 16.0 mph25.7 kmh 30.24 in1024.0 mb 0.00 in0.0 mm 0.00 in0.0 mm 0.00 in0.0 mm
01:56 PM 47.1°F8.4°C 26.3°F-3.2°C 44% 3.8 mph WNW6.1 kmh WNW 16.0 mph25.7 kmh 30.24 in1024.0 mb 0.00 in0.0 mm 0.00 in0.0 mm 0.00 in0.0 mm
02:01 PM 47.4°F8.6°C 25.9°F-3.4°C 43% 5.4 mph NW8.7 kmh NW 16.0 mph25.7 kmh 30.24 in1024.0 mb 0.00 in0.0 mm 0.00 in0.0 mm 0.00 in0.0 mm
02:06 PM 47.1°F8.4°C 25.6°F-3.6°C 43% 6.7 mph WNW10.8 kmh WNW 15.0 mph24.1 kmh 30.24 in1024.0 mb 0.00 in0.0 mm 0.00 in0.0 mm 0.00 in0.0 mm
02:11 PM 47.1°F8.4°C 26.3°F-3.2°C 44% 4.7 mph NW7.6 kmh NW 15.0 mph24.1 kmh 30.24 in1024.0 mb 0.00 in0.0 mm 0.00 in0.0 mm 0.00 in0.0 mm
02:16 PM 47.1°F8.4°C 25.7°F-3.5°C 43% 8.7 mph WNW14.0 kmh WNW 15.0 mph24.1 kmh 30.24 in1024.0 mb 0.00 in0.0 mm 0.00 in0.0 mm 0.00 in0.0 mm
02:21 PM 46.9°F8.3°C 26.0°F-3.3°C 44% 6.0 mph NW9.7 kmh NW 15.0 mph24.1 kmh 30.24 in1024.0 mb 0.00 in0.0 mm 0.00 in0.0 mm 0.00 in0.0 mm
02:26 PM 47.2°F8.4°C 25.7°F-3.5°C 43% 6.1 mph W9.8 kmh W 17.0 mph27.4 kmh 30.24 in1024.0 mb 0.00 in0.0 mm 0.00 in0.0 mm 0.00 in0.0 mm
02:31 PM 47.3°F8.5°C 25.2°F-3.8°C 42% 5.5 mph W8.9 kmh W 18.0 mph29.0 kmh 30.23 in1023.7 mb 0.00 in0.0 mm 0.00 in0.0 mm 0.00 in0.0 mm
02:36 PM 47.4°F8.6°C 25.9°F-3.4°C 43% 3.5 mph WSW5.6 kmh WSW 18.0 mph29.0 kmh 30.23 in1023.7 mb 0.00 in0.0 mm 0.00 in0.0 mm 0.00 in0.0 mm
02:41 PM 47.3°F8.5°C 25.8°F-3.4°C 43% 7.9 mph NW12.7 kmh NW 18.0 mph29.0 kmh 30.23 in1023.7 mb 0.00 in0.0 mm 0.00 in0.0 mm 0.00 in0.0 mm
02:46 PM 47.3°F8.5°C 25.2°F-3.8°C 42% 7.4 mph W11.9 kmh W 14.0 mph22.5 kmh 30.23 in1023.7 mb 0.00 in0.0 mm 0.00 in0.0 mm 0.00 in0.0 mm
02:51 PM 47.3°F8.5°C 25.8°F-3.4°C 43% 6.2 mph WNW10.0 kmh WNW 14.0 mph22.5 kmh 30.23 in1023.7 mb 0.00 in0.0 mm 0.00 in0.0 mm 0.00 in0.0 mm
02:56 PM 47.5°F8.6°C 26.0°F-3.3°C 43% 4.9 mph WNW7.9 kmh WNW 14.0 mph22.5 kmh 30.24 in1024.0 mb 0.00 in0.0 mm 0.00 in0.0 mm 0.00 in0.0 mm
03:01 PM 47.4°F8.6°C 25.3°F-3.7°C 42% 3.9 mph W6.3 kmh W 14.0 mph22.5 kmh 30.24 in1024.0 mb 0.00 in0.0 mm 0.00 in0.0 mm 0.00 in0.0 mm
03:06 PM 47.5°F8.6°C 25.5°F-3.6°C 42% 6.6 mph W10.6 kmh W 14.0 mph22.5 kmh 30.24 in1024.0 mb 0.00 in0.0 mm 0.00 in0.0 mm 0.00 in0.0 mm
03:11 PM 47.4°F8.6°C 24.7°F-4.1°C 41% 6.8 mph WNW10.9 kmh WNW 16.0 mph25.7 kmh 30.24 in1024.0 mb 0.00 in0.0 mm 0.00 in0.0 mm 0.00 in0.0 mm
03:16 PM 47.2°F8.4°C 24.5°F-4.2°C 41% 7.4 mph W11.9 kmh W 16.0 mph25.7 kmh 30.24 in1024.0 mb 0.00 in0.0 mm 0.00 in0.0 mm 0.00 in0.0 mm
03:21 PM 47.3°F8.5°C 24.6°F-4.1°C 41% 6.7 mph W10.8 kmh W 16.0 mph25.7 kmh 30.24 in1024.0 mb 0.00 in0.0 mm 0.00 in0.0 mm 0.00 in0.0 mm
03:26 PM 47.1°F8.4°C 24.6°F-4.1°C 41% 4.9 mph NW7.9 kmh NW 16.0 mph25.7 kmh 30.24 in1024.0 mb 0.00 in0.0 mm 0.00 in0.0 mm 0.00 in0.0 mm
03:31 PM 47.0°F8.3°C 24.9°F-3.9°C 42% 4.8 mph WNW7.7 kmh WNW 16.0 mph25.7 kmh 30.24 in1024.0 mb 0.00 in0.0 mm 0.00 in0.0 mm 0.00 in0.0 mm
03:36 PM 47.1°F8.4°C 25.0°F-3.9°C 42% 4.6 mph WNW7.4 kmh WNW 16.0 mph25.7 kmh 30.25 in1024.4 mb 0.00 in0.0 mm 0.00 in0.0 mm 0.00 in0.0 mm
03:41 PM 47.4°F8.6°C 25.9°F-3.4°C 43% 4.2 mph WNW6.8 kmh WNW 16.0 mph25.7 kmh 30.25 in1024.4 mb 0.00 in0.0 mm 0.00 in0.0 mm 0.00 in0.0 mm
03:46 PM 47.1°F8.4°C 24.4°F-4.2°C 41% 5.6 mph WNW9.0 kmh WNW 15.0 mph24.1 kmh 30.25 in1024.4 mb 0.00 in0.0 mm 0.00 in0.0 mm 0.00 in0.0 mm
03:51 PM 46.8°F8.2°C 24.1°F-4.4°C 41% 6.3 mph WNW10.1 kmh WNW 15.0 mph24.1 kmh 30.25 in1024.4 mb 0.00 in0.0 mm 0.00 in0.0 mm 0.00 in0.0 mm
03:56 PM 46.8°F8.2°C 24.7°F-4.1°C 42% 7.3 mph W11.7 kmh W 15.0 mph24.1 kmh 30.25 in1024.4 mb 0.00 in0.0 mm 0.00 in0.0 mm 0.00 in0.0 mm
04:01 PM 46.9°F8.3°C 25.4°F-3.7°C 43% 5.4 mph WNW8.7 kmh WNW 15.0 mph24.1 kmh 30.25 in1024.4 mb 0.00 in0.0 mm 0.00 in0.0 mm 0.00 in0.0 mm
04:06 PM 46.5°F8.1°C 25.0°F-3.9°C 43% 5.6 mph W9.0 kmh W 16.0 mph25.7 kmh 30.25 in1024.4 mb 0.00 in0.0 mm 0.00 in0.0 mm 0.00 in0.0 mm
04:11 PM 46.5°F8.1°C 25.0°F-3.9°C 43% 8.7 mph WNW14.0 kmh WNW 16.0 mph25.7 kmh 30.25 in1024.4 mb 0.00 in0.0 mm 0.00 in0.0 mm 0.00 in0.0 mm
04:16 PM 46.5°F8.1°C 25.6°F-3.6°C 44% 5.4 mph NW8.7 kmh NW 16.0 mph25.7 kmh 30.26 in1024.7 mb 0.00 in0.0 mm 0.00 in0.0 mm 0.00 in0.0 mm
04:21 PM 46.4°F8.0°C 25.5°F-3.6°C 44% 5.0 mph WNW8.0 kmh WNW 16.0 mph25.7 kmh 30.26 in1024.7 mb 0.00 in0.0 mm 0.00 in0.0 mm 0.00 in0.0 mm
04:26 PM 46.4°F8.0°C 25.5°F-3.6°C 44% 5.9 mph WNW9.5 kmh WNW 15.0 mph24.1 kmh 30.26 in1024.7 mb 0.00 in0.0 mm 0.00 in0.0 mm 0.00 in0.0 mm
04:31 PM 46.3°F7.9°C 25.4°F-3.7°C 44% 5.3 mph W8.5 kmh W 15.0 mph24.1 kmh 30.27 in1025.1 mb 0.00 in0.0 mm 0.00 in0.0 mm 0.00 in0.0 mm
04:36 PM 46.3°F7.9°C 26.0°F-3.3°C 45% 3.6 mph NW5.8 kmh NW 11.0 mph17.7 kmh 30.27 in1025.1 mb 0.00 in0.0 mm 0.00 in0.0 mm 0.00 in0.0 mm
04:41 PM 46.1°F7.8°C 25.8°F-3.4°C 45% 4.5 mph NW7.2 kmh NW 11.0 mph17.7 kmh 30.28 in1025.4 mb 0.00 in0.0 mm 0.00 in0.0 mm 0.00 in0.0 mm
04:46 PM 46.0°F7.8°C 26.3°F-3.2°C 46% 2.4 mph NW3.9 kmh NW 11.0 mph17.7 kmh 30.28 in1025.4 mb 0.00 in0.0 mm 0.00 in0.0 mm 0.00 in0.0 mm
04:51 PM 45.8°F7.7°C 26.1°F-3.3°C 46% 4.4 mph NW7.1 kmh NW 10.0 mph16.1 kmh 30.28 in1025.4 mb 0.00 in0.0 mm 0.00 in0.0 mm 0.00 in0.0 mm
04:56 PM 45.5°F7.5°C 26.3°F-3.2°C 47% 3.9 mph NW6.3 kmh NW 10.0 mph16.1 kmh 30.29 in1025.7 mb 0.00 in0.0 mm 0.00 in0.0 mm 0.00 in0.0 mm
05:01 PM 45.2°F7.3°C 26.1°F-3.3°C 47% 4.2 mph NW6.8 kmh NW 10.0 mph16.1 kmh 30.29 in1025.7 mb 0.00 in0.0 mm 0.00 in0.0 mm 0.00 in0.0 mm
05:06 PM 44.8°F7.1°C 26.2°F-3.2°C 48% 3.6 mph N5.8 kmh N 11.0 mph17.7 kmh 30.29 in1025.7 mb 0.00 in0.0 mm 0.00 in0.0 mm 0.00 in0.0 mm
05:11 PM 44.4°F6.9°C 25.9°F-3.4°C 48% 3.8 mph NW6.1 kmh NW 11.0 mph17.7 kmh 30.30 in1026.1 mb 0.00 in0.0 mm 0.00 in0.0 mm 0.00 in0.0 mm
05:16 PM 44.1°F6.7°C 25.6°F-3.6°C 48% 3.9 mph NNW6.3 kmh NNW 11.0 mph17.7 kmh 30.30 in1026.1 mb 0.00 in0.0 mm 0.00 in0.0 mm 0.00 in0.0 mm
05:21 PM 43.8°F6.6°C 25.9°F-3.4°C 49% 2.5 mph NW4.0 kmh NW 11.0 mph17.7 kmh 30.30 in1026.1 mb 0.00 in0.0 mm 0.00 in0.0 mm 0.00 in0.0 mm
05:26 PM 43.5°F6.4°C 25.5°F-3.6°C 49% 4.2 mph NW6.8 kmh NW 11.0 mph17.7 kmh 30.30 in1026.1 mb 0.00 in0.0 mm 0.00 in0.0 mm 0.00 in0.0 mm
05:31 PM 43.3°F6.3°C 25.9°F-3.4°C 50% 2.6 mph NW4.2 kmh NW 10.0 mph16.1 kmh 30.30 in1026.1 mb 0.00 in0.0 mm 0.00 in0.0 mm 0.00 in0.0 mm
05:36 PM 43.1°F6.2°C 25.7°F-3.5°C 50% 2.3 mph NW3.7 kmh NW 11.0 mph17.7 kmh 30.30 in1026.1 mb 0.00 in0.0 mm 0.00 in0.0 mm 0.00 in0.0 mm
05:41 PM 42.8°F6.0°C 25.9°F-3.4°C 51% 3.5 mph NNW5.6 kmh NNW 11.0 mph17.7 kmh 30.31 in1026.4 mb 0.00 in0.0 mm 0.00 in0.0 mm 0.00 in0.0 mm
05:46 PM 42.5°F5.8°C 26.1°F-3.3°C 52% 2.7 mph NW4.3 kmh NW 11.0 mph17.7 kmh 30.31 in1026.4 mb 0.00 in0.0 mm 0.00 in0.0 mm 0.00 in0.0 mm
05:51 PM 42.2°F5.7°C 26.3°F-3.2°C 53% 3.9 mph NW6.3 kmh NW 11.0 mph17.7 kmh 30.31 in1026.4 mb 0.00 in0.0 mm 0.00 in0.0 mm 0.00 in0.0 mm
05:56 PM 41.9°F5.5°C 26.4°F-3.1°C 54% 3.1 mph NNW5.0 kmh NNW 8.0 mph12.9 kmh 30.31 in1026.4 mb 0.00 in0.0 mm 0.00 in0.0 mm 0.00 in0.0 mm
06:01 PM 41.7°F5.4°C 26.3°F-3.2°C 54% 2.9 mph NW4.7 kmh NW 9.0 mph14.5 kmh 30.31 in1026.4 mb 0.00 in0.0 mm 0.00 in0.0 mm 0.00 in0.0 mm
06:06 PM 41.5°F5.3°C 26.1°F-3.3°C 54% 2.8 mph NNW4.5 kmh NNW 9.0 mph14.5 kmh 30.32 in1026.8 mb 0.00 in0.0 mm 0.00 in0.0 mm 0.00 in0.0 mm
06:11 PM 41.3°F5.2°C 26.4°F-3.1°C 55% 3.3 mph NW5.3 kmh NW 9.0 mph14.5 kmh 30.32 in1026.8 mb 0.00 in0.0 mm 0.00 in0.0 mm 0.00 in0.0 mm
06:16 PM 41.1°F5.1°C 26.2°F-3.2°C 55% 3.0 mph NNW4.8 kmh NNW 9.0 mph14.5 kmh 30.32 in1026.8 mb 0.00 in0.0 mm 0.00 in0.0 mm 0.00 in0.0 mm
06:21 PM 40.9°F4.9°C 26.4°F-3.1°C 56% 1.5 mph NW2.4 kmh NW 8.0 mph12.9 kmh 30.32 in1026.8 mb 0.00 in0.0 mm 0.00 in0.0 mm 0.00 in0.0 mm
06:26 PM 40.6°F4.8°C 26.2°F-3.2°C 56% 2.3 mph NW3.7 kmh NW 8.0 mph12.9 kmh 30.33 in1027.1 mb 0.00 in0.0 mm 0.00 in0.0 mm 0.00 in0.0 mm
06:31 PM 40.4°F4.7°C 26.4°F-3.1°C 57% 2.2 mph NW3.5 kmh NW 6.0 mph9.7 kmh 30.33 in1027.1 mb 0.00 in0.0 mm 0.00 in0.0 mm 0.00 in0.0 mm
06:36 PM 40.2°F4.6°C 26.6°F-3.0°C 58% 2.4 mph NW3.9 kmh NW 6.0 mph9.7 kmh 30.33 in1027.1 mb 0.00 in0.0 mm 0.00 in0.0 mm 0.00 in0.0 mm
06:41 PM 40.1°F4.5°C 26.1°F-3.3°C 57% 3.3 mph NW5.3 kmh NW 8.0 mph12.9 kmh 30.33 in1027.1 mb 0.00 in0.0 mm 0.00 in0.0 mm 0.00 in0.0 mm
06:45 PM 40.0°F4.4°C 26.5°F-3.1°C 58% 2.1 mph NNW3.4 kmh NNW 9.0 mph14.5 kmh 30.34 in1027.4 mb 0.00 in0.0 mm 0.00 in0.0 mm 0.00 in0.0 mm
06:50 PM 39.9°F4.4°C 26.4°F-3.1°C 58% 4.0 mph NW6.4 kmh NW 10.0 mph16.1 kmh 30.34 in1027.4 mb 0.00 in0.0 mm 0.00 in0.0 mm 0.00 in0.0 mm
06:55 PM 39.7°F4.3°C 26.2°F-3.2°C 58% 3.5 mph NW5.6 kmh NW 10.0 mph16.1 kmh 30.34 in1027.4 mb 0.00 in0.0 mm 0.00 in0.0 mm 0.00 in0.0 mm
07:00 PM 39.6°F4.2°C 26.1°F-3.3°C 58% 3.1 mph NW5.0 kmh NW 15.0 mph24.1 kmh 30.34 in1027.4 mb 0.00 in0.0 mm 0.00 in0.0 mm 0.00 in0.0 mm
07:05 PM 39.4°F4.1°C 26.2°F-3.2°C 59% 2.6 mph NW4.2 kmh NW 15.0 mph24.1 kmh 30.34 in1027.4 mb 0.00 in0.0 mm 0.00 in0.0 mm 0.00 in0.0 mm
07:10 PM 39.2°F4.0°C 26.1°F-3.3°C 59% 2.4 mph NNW3.9 kmh NNW 15.0 mph24.1 kmh 30.35 in1027.8 mb 0.00 in0.0 mm 0.00 in0.0 mm 0.00 in0.0 mm
07:15 PM 39.0°F3.9°C 26.3°F-3.2°C 60% 1.0 mph NNW1.6 kmh NNW 9.0 mph14.5 kmh 30.35 in1027.8 mb 0.00 in0.0 mm 0.00 in0.0 mm 0.00 in0.0 mm
07:20 PM 38.7°F3.7°C 26.1°F-3.3°C 60% 2.5 mph NNW4.0 kmh NNW 8.0 mph12.9 kmh 30.35 in1027.8 mb 0.00 in0.0 mm 0.00 in0.0 mm 0.00 in0.0 mm
07:25 PM 38.4°F3.6°C 26.2°F-3.2°C 61% 1.6 mph N2.6 kmh N 8.0 mph12.9 kmh 30.35 in1027.8 mb 0.00 in0.0 mm 0.00 in0.0 mm 0.00 in0.0 mm
07:30 PM 38.2°F3.4°C 26.3°F-3.2°C 62% 1.0 mph NW1.6 kmh NW 6.0 mph9.7 kmh 30.35 in1027.8 mb 0.00 in0.0 mm 0.00 in0.0 mm 0.00 in0.0 mm
07:35 PM 38.0°F3.3°C 26.2°F-3.2°C 62% 2.6 mph NNW4.2 kmh NNW 8.0 mph12.9 kmh 30.36 in1028.1 mb 0.00 in0.0 mm 0.00 in0.0 mm 0.00 in0.0 mm
07:40 PM 37.8°F3.2°C 26.0°F-3.3°C 62% 3.6 mph NW5.8 kmh NW 8.0 mph12.9 kmh 30.36 in1028.1 mb 0.00 in0.0 mm 0.00 in0.0 mm 0.00 in0.0 mm
07:45 PM 37.7°F3.2°C 25.8°F-3.4°C 62% 2.7 mph NW4.3 kmh NW 8.0 mph12.9 kmh 30.36 in1028.1 mb 0.00 in0.0 mm 0.00 in0.0 mm 0.00 in0.0 mm
07:50 PM 37.6°F3.1°C 25.8°F-3.4°C 62% 3.1 mph NW5.0 kmh NW 8.0 mph12.9 kmh 30.36 in1028.1 mb 0.00 in0.0 mm 0.00 in0.0 mm 0.00 in0.0 mm
07:55 PM 37.5°F3.1°C 25.7°F-3.5°C 62% 3.3 mph NW5.3 kmh NW 8.0 mph12.9 kmh 30.36 in1028.1 mb 0.00 in0.0 mm 0.00 in0.0 mm 0.00 in0.0 mm
08:00 PM 37.3°F2.9°C 25.5°F-3.6°C 62% 1.9 mph NW3.1 kmh NW 8.0 mph12.9 kmh 30.37 in1028.4 mb 0.00 in0.0 mm 0.00 in0.0 mm 0.00 in0.0 mm
08:05 PM 37.1°F2.8°C 25.3°F-3.7°C 62% 2.5 mph NW4.0 kmh NW 8.0 mph12.9 kmh 30.37 in1028.4 mb 0.00 in0.0 mm 0.00 in0.0 mm 0.00 in0.0 mm
08:10 PM 37.0°F2.8°C 25.6°F-3.6°C 63% 2.4 mph NW3.9 kmh NW 8.0 mph12.9 kmh 30.37 in1028.4 mb 0.00 in0.0 mm 0.00 in0.0 mm 0.00 in0.0 mm
08:15 PM 36.9°F2.7°C 25.5°F-3.6°C 63% 2.2 mph NW3.5 kmh NW 7.0 mph11.3 kmh 30.37 in1028.4 mb 0.00 in0.0 mm 0.00 in0.0 mm 0.00 in0.0 mm
08:20 PM 36.7°F2.6°C 25.3°F-3.7°C 63% 2.3 mph NW3.7 kmh NW 8.0 mph12.9 kmh 30.37 in1028.4 mb 0.00 in0.0 mm 0.00 in0.0 mm 0.00 in0.0 mm
08:25 PM 36.4°F2.4°C 25.4°F-3.7°C 64% 1.0 mph NW1.6 kmh NW 8.0 mph12.9 kmh 30.37 in1028.4 mb 0.00 in0.0 mm 0.00 in0.0 mm 0.00 in0.0 mm
08:30 PM 36.2°F2.3°C 25.3°F-3.7°C 64% 1.6 mph NNW2.6 kmh NNW 8.0 mph12.9 kmh 30.38 in1028.8 mb 0.00 in0.0 mm 0.00 in0.0 mm 0.00 in0.0 mm
08:35 PM 36.0°F2.2°C 25.4°F-3.7°C 65% 1.0 mph WNW1.6 kmh WNW 8.0 mph12.9 kmh 30.38 in1028.8 mb 0.00 in0.0 mm 0.00 in0.0 mm 0.00 in0.0 mm
08:40 PM 35.9°F2.2°C 25.3°F-3.7°C 65% 1.7 mph NW2.7 kmh NW 3.0 mph4.8 kmh 30.38 in1028.8 mb 0.00 in0.0 mm 0.00 in0.0 mm 0.00 in0.0 mm
08:45 PM 35.7°F2.1°C 25.2°F-3.8°C 65% 2.4 mph NNW3.9 kmh NNW 4.0 mph6.4 kmh 30.38 in1028.8 mb 0.00 in0.0 mm 0.00 in0.0 mm 0.00 in0.0 mm
08:50 PM 35.5°F1.9°C 25.3°F-3.7°C 66% 2.0 mph NE3.2 kmh NE 4.0 mph6.4 kmh 30.38 in1028.8 mb 0.00 in0.0 mm 0.00 in0.0 mm 0.00 in0.0 mm
08:55 PM 35.3°F1.8°C 25.1°F-3.8°C 66% 1.5 mph NW2.4 kmh NW 4.0 mph6.4 kmh 30.38 in1028.8 mb 0.00 in0.0 mm 0.00 in0.0 mm 0.00 in0.0 mm
09:00 PM 35.1°F1.7°C 25.2°F-3.8°C 67% 1.0 mph NNW1.6 kmh NNW 4.0 mph6.4 kmh 30.38 in1028.8 mb 0.00 in0.0 mm 0.00 in0.0 mm 0.00 in0.0 mm
09:05 PM 34.8°F1.6°C 25.0°F-3.9°C 67% Calm Calm 4.0 mph6.4 kmh 30.39 in1029.1 mb 0.00 in0.0 mm 0.00 in0.0 mm 0.00 in0.0 mm
09:10 PM 34.6°F1.4°C 25.2°F-3.8°C 68% 1.0 mph NW1.6 kmh NW 4.0 mph6.4 kmh 30.38 in1028.8 mb 0.00 in0.0 mm 0.00 in0.0 mm 0.00 in0.0 mm
09:15 PM 34.4°F1.3°C 25.0°F-3.9°C 68% 1.0 mph NW1.6 kmh NW 4.0 mph6.4 kmh 30.39 in1029.1 mb 0.00 in0.0 mm 0.00 in0.0 mm 0.00 in0.0 mm
09:20 PM 34.3°F1.3°C 24.9°F-3.9°C 68% 1.9 mph NW3.1 kmh NW 4.0 mph6.4 kmh 30.39 in1029.1 mb 0.00 in0.0 mm 0.00 in0.0 mm 0.00 in0.0 mm
09:25 PM 34.0°F1.1°C 25.0°F-3.9°C 69% 1.0 mph NW1.6 kmh NW 4.0 mph6.4 kmh 30.39 in1029.1 mb 0.00 in0.0 mm 0.00 in0.0 mm 0.00 in0.0 mm
09:30 PM 33.8°F1.0°C 24.8°F-4.0°C 69% 1.0 mph N1.6 kmh N 4.0 mph6.4 kmh 30.39 in1029.1 mb 0.00 in0.0 mm 0.00 in0.0 mm 0.00 in0.0 mm
09:35 PM 33.6°F0.9°C 24.9°F-3.9°C 70% 1.7 mph NNW2.7 kmh NNW 3.0 mph4.8 kmh 30.39 in1029.1 mb 0.00 in0.0 mm 0.00 in0.0 mm 0.00 in0.0 mm
09:40 PM 33.5°F0.8°C 24.8°F-4.0°C 70% 2.0 mph NW3.2 kmh NW 4.0 mph6.4 kmh 30.39 in1029.1 mb 0.00 in0.0 mm 0.00 in0.0 mm 0.00 in0.0 mm
09:45 PM 33.4°F0.8°C 25.1°F-3.8°C 71% 1.9 mph N3.1 kmh N 5.0 mph8.0 kmh 30.39 in1029.1 mb 0.00 in0.0 mm 0.00 in0.0 mm 0.00 in0.0 mm
09:50 PM 33.3°F0.7°C 24.6°F-4.1°C 70% 1.2 mph NW1.9 kmh NW 5.0 mph8.0 kmh 30.39 in1029.1 mb 0.00 in0.0 mm 0.00 in0.0 mm 0.00 in0.0 mm
09:55 PM 33.3°F0.7°C 24.6°F-4.1°C 70% 1.4 mph N2.3 kmh N 5.0 mph8.0 kmh 30.39 in1029.1 mb 0.00 in0.0 mm 0.00 in0.0 mm 0.00 in0.0 mm
10:00 PM 33.3°F0.7°C 24.6°F-4.1°C 70% 1.5 mph NNW2.4 kmh NNW 5.0 mph8.0 kmh 30.39 in1029.1 mb 0.00 in0.0 mm 0.00 in0.0 mm 0.00 in0.0 mm
10:05 PM 33.2°F0.7°C 24.5°F-4.2°C 70% Calm Calm 3.0 mph4.8 kmh 30.39 in1029.1 mb 0.00 in0.0 mm 0.00 in0.0 mm 0.00 in0.0 mm
10:10 PM 32.9°F0.5°C 24.2°F-4.3°C 70% Calm Calm 3.0 mph4.8 kmh 30.39 in1029.1 mb 0.00 in0.0 mm 0.00 in0.0 mm 0.00 in0.0 mm
10:15 PM 32.8°F0.4°C 24.4°F-4.2°C 71% Calm Calm 3.0 mph4.8 kmh 30.39 in1029.1 mb 0.00 in0.0 mm 0.00 in0.0 mm 0.00 in0.0 mm
10:20 PM 32.8°F0.4°C 24.5°F-4.2°C 71% 1.0 mph NW1.6 kmh NW 2.0 mph3.2 kmh 30.39 in1029.1 mb 0.00 in0.0 mm 0.00 in0.0 mm 0.00 in0.0 mm
10:25 PM 32.7°F0.4°C 24.4°F-4.2°C 71% 1.6 mph NW2.6 kmh NW 3.0 mph4.8 kmh 30.39 in1029.1 mb 0.00 in0.0 mm 0.00 in0.0 mm 0.00 in0.0 mm
10:30 PM 32.8°F0.4°C 24.1°F-4.4°C 70% 2.4 mph NNW3.9 kmh NNW 5.0 mph8.0 kmh 30.39 in1029.1 mb 0.00 in0.0 mm 0.00 in0.0 mm 0.00 in0.0 mm
10:35 PM 32.8°F0.4°C 24.1°F-4.4°C 70% 1.8 mph NW2.9 kmh NW 5.0 mph8.0 kmh 30.39 in1029.1 mb 0.00 in0.0 mm 0.00 in0.0 mm 0.00 in0.0 mm
10:40 PM 32.8°F0.4°C 24.2°F-4.3°C 70% 1.6 mph NW2.6 kmh NW 5.0 mph8.0 kmh 30.39 in1029.1 mb 0.00 in0.0 mm 0.00 in0.0 mm 0.00 in0.0 mm
10:45 PM 32.7°F0.4°C 24.1°F-4.4°C 70% 1.8 mph NW2.9 kmh NW 5.0 mph8.0 kmh 30.40 in1029.5 mb 0.00 in0.0 mm 0.00 in0.0 mm 0.00 in0.0 mm
10:50 PM 32.6°F0.3°C 23.9°F-4.5°C 70% 1.9 mph NW3.1 kmh NW 5.0 mph8.0 kmh 30.40 in1029.5 mb 0.00 in0.0 mm 0.00 in0.0 mm 0.00 in0.0 mm
10:55 PM 32.5°F0.3°C 23.8°F-4.6°C 70% 2.3 mph NW3.7 kmh NW 5.0 mph8.0 kmh 30.40 in1029.5 mb 0.00 in0.0 mm 0.00 in0.0 mm 0.00 in0.0 mm
11:00 PM 32.5°F0.3°C 23.9°F-4.5°C 70% 1.0 mph NNW1.6 kmh NNW 5.0 mph8.0 kmh 30.40 in1029.5 mb 0.00 in0.0 mm 0.00 in0.0 mm 0.00 in0.0 mm
11:05 PM 32.3°F0.2°C 23.7°F-4.6°C 70% 2.6 mph NW4.2 kmh NW 6.0 mph9.7 kmh 30.40 in1029.5 mb 0.00 in0.0 mm 0.00 in0.0 mm 0.00 in0.0 mm
11:10 PM 32.2°F0.1°C 23.8°F-4.6°C 71% 1.7 mph NW2.7 kmh NW 6.0 mph9.7 kmh 30.40 in1029.5 mb 0.00 in0.0 mm 0.00 in0.0 mm 0.00 in0.0 mm
11:15 PM 32.1°F0.1°C 23.5°F-4.7°C 70% 2.1 mph NW3.4 kmh NW 6.0 mph9.7 kmh 30.40 in1029.5 mb 0.00 in0.0 mm 0.00 in0.0 mm 0.00 in0.0 mm
11:20 PM 32.1°F0.1°C 23.4°F-4.8°C 70% 3.0 mph NW4.8 kmh NW 8.0 mph12.9 kmh 30.40 in1029.5 mb 0.00 in0.0 mm 0.00 in0.0 mm 0.00 in0.0 mm
11:26 PM 32.1°F0.1°C 23.5°F-4.7°C 70% 2.9 mph NW4.7 kmh NW 8.0 mph12.9 kmh 30.40 in1029.5 mb 0.00 in0.0 mm 0.00 in0.0 mm 0.00 in0.0 mm
11:30 PM 32.1°F0.1°C 23.5°F-4.7°C 70% 1.0 mph NW1.6 kmh NW 8.0 mph12.9 kmh 30.41 in1029.8 mb 0.00 in0.0 mm 0.00 in0.0 mm 0.00 in0.0 mm
11:36 PM 31.9°F-0.1°C 23.3°F-4.8°C 70% 2.1 mph NW3.4 kmh NW 8.0 mph12.9 kmh 30.40 in1029.5 mb 0.00 in0.0 mm 0.00 in0.0 mm 0.00 in0.0 mm
11:41 PM 31.8°F-0.1°C 23.5°F-4.7°C 71% 1.3 mph WNW2.1 kmh WNW 5.0 mph8.0 kmh 30.40 in1029.5 mb 0.00 in0.0 mm 0.00 in0.0 mm 0.00 in0.0 mm
11:45 PM 31.7°F-0.2°C 23.4°F-4.8°C 71% 1.0 mph WNW1.6 kmh WNW 5.0 mph8.0 kmh 30.40 in1029.5 mb 0.00 in0.0 mm 0.00 in0.0 mm 0.00 in0.0 mm
11:50 PM 31.6°F-0.2°C 23.7°F-4.6°C 72% 1.0 mph WNW1.6 kmh WNW 4.0 mph6.4 kmh 30.40 in1029.5 mb 0.00 in0.0 mm 0.00 in0.0 mm 0.00 in0.0 mm
11:55 PM 31.4°F-0.3°C 23.4°F-4.8°C 72% 2.0 mph NW3.2 kmh NW 5.0 mph8.0 kmh 30.40 in1029.5 mb 0.00 in0.0 mm 0.00 in0.0 mm 0.00 in0.0 mm